sensor_id;sensor_type;location;lat;lon;timestamp;P1;durP1;ratioP1;P2;durP2;ratioP2
9270;SDS011;4673;53.458;9.940;2023-06-22T00:02:15;2.25;;;2.25;;
9270;SDS011;4673;53.458;9.940;2023-06-22T00:04:41;2.30;;;2.30;;
9270;SDS011;4673;53.458;9.940;2023-06-22T00:07:06;2.35;;;2.35;;
9270;SDS011;4673;53.458;9.940;2023-06-22T00:09:33;2.40;;;2.40;;
9270;SDS011;4673;53.458;9.940;2023-06-22T00:11:59;2.53;;;2.53;;
9270;SDS011;4673;53.458;9.940;2023-06-22T00:14:25;2.40;;;2.40;;
9270;SDS011;4673;53.458;9.940;2023-06-22T00:16:50;2.40;;;2.40;;
9270;SDS011;4673;53.458;9.940;2023-06-22T00:19:19;2.75;;;2.75;;
9270;SDS011;4673;53.458;9.940;2023-06-22T00:21:47;2.40;;;2.40;;
9270;SDS011;4673;53.458;9.940;2023-06-22T00:24:17;2.88;;;2.88;;
9270;SDS011;4673;53.458;9.940;2023-06-22T00:26:44;2.35;;;2.35;;
9270;SDS011;4673;53.458;9.940;2023-06-22T00:29:10;2.95;;;2.95;;
9270;SDS011;4673;53.458;9.940;2023-06-22T00:31:35;2.50;;;2.50;;
9270;SDS011;4673;53.458;9.940;2023-06-22T00:34:01;2.63;;;2.63;;
9270;SDS011;4673;53.458;9.940;2023-06-22T00:36:26;3.00;;;3.00;;
9270;SDS011;4673;53.458;9.940;2023-06-22T00:38:52;2.70;;;2.70;;
9270;SDS011;4673;53.458;9.940;2023-06-22T00:41:18;2.80;;;2.80;;
9270;SDS011;4673;53.458;9.940;2023-06-22T00:43:45;2.83;;;2.83;;
9270;SDS011;4673;53.458;9.940;2023-06-22T00:46:10;3.10;;;3.10;;
9270;SDS011;4673;53.458;9.940;2023-06-22T00:48:36;2.67;;;2.67;;
9270;SDS011;4673;53.458;9.940;2023-06-22T00:51:03;2.63;;;2.63;;
9270;SDS011;4673;53.458;9.940;2023-06-22T00:53:29;2.95;;;2.95;;
9270;SDS011;4673;53.458;9.940;2023-06-22T00:55:54;2.60;;;2.60;;
9270;SDS011;4673;53.458;9.940;2023-06-22T00:58:21;2.53;;;2.53;;
9270;SDS011;4673;53.458;9.940;2023-06-22T01:00:47;3.05;;;3.05;;
9270;SDS011;4673;53.458;9.940;2023-06-22T01:03:13;2.92;;;2.92;;
9270;SDS011;4673;53.458;9.940;2023-06-22T01:05:39;2.78;;;2.78;;
9270;SDS011;4673;53.458;9.940;2023-06-22T01:13:40;2.50;;;2.50;;
9270;SDS011;4673;53.458;9.940;2023-06-22T01:16:12;2.40;;;2.40;;
9270;SDS011;4673;53.458;9.940;2023-06-22T01:18:43;2.92;;;2.92;;
9270;SDS011;4673;53.458;9.940;2023-06-22T01:21:11;3.30;;;3.30;;
9270;SDS011;4673;53.458;9.940;2023-06-22T01:24:41;2.95;;;2.95;;
9270;SDS011;4673;53.458;9.940;2023-06-22T01:29:27;3.33;;;3.33;;
9270;SDS011;4673;53.458;9.940;2023-06-22T01:31:54;3.42;;;3.42;;
9270;SDS011;4673;53.458;9.940;2023-06-22T01:34:22;3.10;;;3.10;;
9270;SDS011;4673;53.458;9.940;2023-06-22T01:36:49;3.05;;;3.05;;
9270;SDS011;4673;53.458;9.940;2023-06-22T01:39:19;3.08;;;3.08;;
9270;SDS011;4673;53.458;9.940;2023-06-22T01:41:47;2.85;;;2.85;;
9270;SDS011;4673;53.458;9.940;2023-06-22T01:44:13;3.22;;;3.22;;
9270;SDS011;4673;53.458;9.940;2023-06-22T01:46:39;3.00;;;3.00;;
9270;SDS011;4673;53.458;9.940;2023-06-22T01:49:05;2.85;;;2.85;;
9270;SDS011;4673;53.458;9.940;2023-06-22T01:51:32;3.33;;;3.33;;
9270;SDS011;4673;53.458;9.940;2023-06-22T01:53:58;2.72;;;2.72;;
9270;SDS011;4673;53.458;9.940;2023-06-22T01:56:23;3.33;;;3.33;;
9270;SDS011;4673;53.458;9.940;2023-06-22T01:58:54;3.88;;;3.88;;
9270;SDS011;4673;53.458;9.940;2023-06-22T02:02:13;3.45;;;3.45;;
9270;SDS011;4673;53.458;9.940;2023-06-22T02:04:51;3.45;;;3.45;;
9270;SDS011;4673;53.458;9.940;2023-06-22T02:07:31;2.53;;;2.53;;
9270;SDS011;4673;53.458;9.940;2023-06-22T02:10:02;3.38;;;3.38;;
9270;SDS011;4673;53.458;9.940;2023-06-22T02:12:32;3.10;;;3.10;;
9270;SDS011;4673;53.458;9.940;2023-06-22T02:15:00;3.67;;;3.67;;
9270;SDS011;4673;53.458;9.940;2023-06-22T02:17:27;3.35;;;3.35;;
9270;SDS011;4673;53.458;9.940;2023-06-22T02:19:53;3.45;;;3.45;;
9270;SDS011;4673;53.458;9.940;2023-06-22T02:22:19;3.55;;;3.55;;
9270;SDS011;4673;53.458;9.940;2023-06-22T02:24:44;4.10;;;4.10;;
9270;SDS011;4673;53.458;9.940;2023-06-22T02:27:10;4.18;;;4.18;;
9270;SDS011;4673;53.458;9.940;2023-06-22T02:29:36;4.05;;;4.05;;
9270;SDS011;4673;53.458;9.940;2023-06-22T02:32:02;4.60;;;4.60;;
9270;SDS011;4673;53.458;9.940;2023-06-22T02:34:29;4.32;;;4.32;;
9270;SDS011;4673;53.458;9.940;2023-06-22T02:36:54;4.45;;;4.45;;
9270;SDS011;4673;53.458;9.940;2023-06-22T02:39:20;4.15;;;4.15;;
9270;SDS011;4673;53.458;9.940;2023-06-22T02:41:50;4.18;;;4.18;;
9270;SDS011;4673;53.458;9.940;2023-06-22T02:44:19;4.70;;;4.70;;
9270;SDS011;4673;53.458;9.940;2023-06-22T02:46:46;4.10;;;4.10;;
9270;SDS011;4673;53.458;9.940;2023-06-22T02:49:13;4.32;;;4.32;;
9270;SDS011;4673;53.458;9.940;2023-06-22T02:51:39;3.75;;;3.75;;
9270;SDS011;4673;53.458;9.940;2023-06-22T02:54:07;4.18;;;4.18;;
9270;SDS011;4673;53.458;9.940;2023-06-22T02:56:33;4.07;;;4.07;;
9270;SDS011;4673;53.458;9.940;2023-06-22T02:58:58;3.90;;;3.90;;
9270;SDS011;4673;53.458;9.940;2023-06-22T03:01:29;4.63;;;4.63;;
9270;SDS011;4673;53.458;9.940;2023-06-22T03:04:04;4.00;;;4.00;;
9270;SDS011;4673;53.458;9.940;2023-06-22T03:06:34;3.83;;;3.83;;
9270;SDS011;4673;53.458;9.940;2023-06-22T03:09:01;4.30;;;4.30;;
9270;SDS011;4673;53.458;9.940;2023-06-22T03:11:33;3.95;;;3.95;;
9270;SDS011;4673;53.458;9.940;2023-06-22T03:14:00;4.05;;;4.05;;
9270;SDS011;4673;53.458;9.940;2023-06-22T03:16:26;4.43;;;4.43;;
9270;SDS011;4673;53.458;9.940;2023-06-22T03:18:52;3.85;;;3.85;;
9270;SDS011;4673;53.458;9.940;2023-06-22T03:21:18;4.80;;;4.80;;
9270;SDS011;4673;53.458;9.940;2023-06-22T03:23:44;4.28;;;4.28;;
9270;SDS011;4673;53.458;9.940;2023-06-22T03:26:10;4.45;;;4.45;;
9270;SDS011;4673;53.458;9.940;2023-06-22T03:28:37;4.47;;;4.47;;
9270;SDS011;4673;53.458;9.940;2023-06-22T03:31:03;4.18;;;4.18;;
9270;SDS011;4673;53.458;9.940;2023-06-22T03:33:29;3.92;;;3.92;;
9270;SDS011;4673;53.458;9.940;2023-06-22T03:35:55;4.30;;;4.30;;
9270;SDS011;4673;53.458;9.940;2023-06-22T03:38:21;4.18;;;4.18;;
9270;SDS011;4673;53.458;9.940;2023-06-22T03:40:46;3.92;;;3.92;;
9270;SDS011;4673;53.458;9.940;2023-06-22T03:43:12;4.13;;;4.13;;
9270;SDS011;4673;53.458;9.940;2023-06-22T03:45:38;4.15;;;4.15;;
9270;SDS011;4673;53.458;9.940;2023-06-22T03:48:05;4.22;;;4.22;;
9270;SDS011;4673;53.458;9.940;2023-06-22T03:50:30;3.88;;;3.88;;
9270;SDS011;4673;53.458;9.940;2023-06-22T03:52:57;3.90;;;3.90;;
9270;SDS011;4673;53.458;9.940;2023-06-22T03:55:22;4.35;;;4.35;;
9270;SDS011;4673;53.458;9.940;2023-06-22T03:57:48;3.20;;;3.20;;
9270;SDS011;4673;53.458;9.940;2023-06-22T04:00:14;3.90;;;3.90;;
9270;SDS011;4673;53.458;9.940;2023-06-22T04:02:43;3.40;;;3.40;;
9270;SDS011;4673;53.458;9.940;2023-06-22T04:05:09;3.90;;;3.90;;
9270;SDS011;4673;53.458;9.940;2023-06-22T04:07:35;3.35;;;3.35;;
9270;SDS011;4673;53.458;9.940;2023-06-22T04:10:02;4.03;;;4.03;;
9270;SDS011;4673;53.458;9.940;2023-06-22T04:12:29;3.90;;;3.90;;
9270;SDS011;4673;53.458;9.940;2023-06-22T04:14:54;3.67;;;3.67;;
9270;SDS011;4673;53.458;9.940;2023-06-22T04:17:20;3.75;;;3.75;;
9270;SDS011;4673;53.458;9.940;2023-06-22T04:19:46;3.60;;;3.60;;
9270;SDS011;4673;53.458;9.940;2023-06-22T04:22:12;4.05;;;4.05;;
9270;SDS011;4673;53.458;9.940;2023-06-22T04:24:37;3.80;;;3.80;;
9270;SDS011;4673;53.458;9.940;2023-06-22T04:27:03;3.90;;;3.90;;
9270;SDS011;4673;53.458;9.940;2023-06-22T04:29:29;3.53;;;3.53;;
9270;SDS011;4673;53.458;9.940;2023-06-22T04:31:56;4.40;;;4.40;;
9270;SDS011;4673;53.458;9.940;2023-06-22T04:34:23;4.13;;;4.13;;
9270;SDS011;4673;53.458;9.940;2023-06-22T04:36:53;4.03;;;4.03;;
9270;SDS011;4673;53.458;9.940;2023-06-22T04:39:18;3.95;;;3.95;;
9270;SDS011;4673;53.458;9.940;2023-06-22T04:41:44;4.40;;;4.40;;
9270;SDS011;4673;53.458;9.940;2023-06-22T04:44:14;5.13;;;5.13;;
9270;SDS011;4673;53.458;9.940;2023-06-22T04:46:54;4.47;;;4.47;;
9270;SDS011;4673;53.458;9.940;2023-06-22T04:49:33;4.40;;;4.40;;
9270;SDS011;4673;53.458;9.940;2023-06-22T04:52:04;4.88;;;4.88;;
9270;SDS011;4673;53.458;9.940;2023-06-22T04:54:32;5.07;;;5.07;;
9270;SDS011;4673;53.458;9.940;2023-06-22T04:56:59;4.63;;;4.63;;
9270;SDS011;4673;53.458;9.940;2023-06-22T04:59:29;4.95;;;4.95;;
9270;SDS011;4673;53.458;9.940;2023-06-22T05:02:02;4.35;;;4.35;;
9270;SDS011;4673;53.458;9.940;2023-06-22T05:04:30;5.43;;;5.43;;
9270;SDS011;4673;53.458;9.940;2023-06-22T05:07:00;5.00;;;5.00;;
9270;SDS011;4673;53.458;9.940;2023-06-22T05:09:27;5.03;;;5.03;;
9270;SDS011;4673;53.458;9.940;2023-06-22T05:11:53;5.30;;;5.30;;
9270;SDS011;4673;53.458;9.940;2023-06-22T05:14:19;5.75;;;5.75;;
9270;SDS011;4673;53.458;9.940;2023-06-22T05:16:45;5.35;;;5.35;;
9270;SDS011;4673;53.458;9.940;2023-06-22T05:19:11;5.82;;;5.82;;
9270;SDS011;4673;53.458;9.940;2023-06-22T05:21:36;5.15;;;5.15;;
9270;SDS011;4673;53.458;9.940;2023-06-22T05:24:02;5.30;;;5.30;;
9270;SDS011;4673;53.458;9.940;2023-06-22T05:26:29;4.95;;;4.95;;
9270;SDS011;4673;53.458;9.940;2023-06-22T05:28:56;4.95;;;4.95;;
9270;SDS011;4673;53.458;9.940;2023-06-22T05:31:22;5.05;;;5.05;;
9270;SDS011;4673;53.458;9.940;2023-06-22T05:33:49;4.93;;;4.93;;
9270;SDS011;4673;53.458;9.940;2023-06-22T05:36:16;5.40;;;5.40;;
9270;SDS011;4673;53.458;9.940;2023-06-22T05:38:44;4.50;;;4.50;;
9270;SDS011;4673;53.458;9.940;2023-06-22T05:41:10;3.92;;;3.92;;
9270;SDS011;4673;53.458;9.940;2023-06-22T05:43:36;4.80;;;4.80;;
9270;SDS011;4673;53.458;9.940;2023-06-22T05:46:02;4.65;;;4.65;;
9270;SDS011;4673;53.458;9.940;2023-06-22T05:48:28;3.60;;;3.60;;
9270;SDS011;4673;53.458;9.940;2023-06-22T05:50:54;4.30;;;4.30;;
9270;SDS011;4673;53.458;9.940;2023-06-22T05:53:20;3.92;;;3.92;;
9270;SDS011;4673;53.458;9.940;2023-06-22T05:55:46;3.65;;;3.65;;
9270;SDS011;4673;53.458;9.940;2023-06-22T05:58:11;3.20;;;3.20;;
9270;SDS011;4673;53.458;9.940;2023-06-22T06:00:38;3.72;;;3.72;;
9270;SDS011;4673;53.458;9.940;2023-06-22T06:03:05;3.55;;;3.55;;
9270;SDS011;4673;53.458;9.940;2023-06-22T06:05:32;3.83;;;3.83;;
9270;SDS011;4673;53.458;9.940;2023-06-22T06:07:59;3.28;;;3.28;;
9270;SDS011;4673;53.458;9.940;2023-06-22T06:10:26;3.70;;;3.70;;
9270;SDS011;4673;53.458;9.940;2023-06-22T06:12:52;3.78;;;3.78;;
9270;SDS011;4673;53.458;9.940;2023-06-22T06:15:18;4.00;;;4.00;;
9270;SDS011;4673;53.458;9.940;2023-06-22T06:17:47;3.92;;;3.92;;
9270;SDS011;4673;53.458;9.940;2023-06-22T06:20:13;4.40;;;4.40;;
9270;SDS011;4673;53.458;9.940;2023-06-22T06:22:40;4.35;;;4.35;;
9270;SDS011;4673;53.458;9.940;2023-06-22T06:25:07;4.25;;;4.25;;
9270;SDS011;4673;53.458;9.940;2023-06-22T06:27:33;3.90;;;3.90;;
9270;SDS011;4673;53.458;9.940;2023-06-22T06:29:59;3.95;;;3.95;;
9270;SDS011;4673;53.458;9.940;2023-06-22T06:32:25;4.53;;;4.53;;
9270;SDS011;4673;53.458;9.940;2023-06-22T06:34:50;4.30;;;4.30;;
9270;SDS011;4673;53.458;9.940;2023-06-22T06:37:16;3.65;;;3.65;;
9270;SDS011;4673;53.458;9.940;2023-06-22T06:39:43;3.22;;;3.22;;
9270;SDS011;4673;53.458;9.940;2023-06-22T06:42:09;3.35;;;3.35;;
9270;SDS011;4673;53.458;9.940;2023-06-22T06:44:36;4.03;;;4.03;;
9270;SDS011;4673;53.458;9.940;2023-06-22T06:47:03;3.55;;;3.55;;
9270;SDS011;4673;53.458;9.940;2023-06-22T06:49:29;3.67;;;3.67;;
9270;SDS011;4673;53.458;9.940;2023-06-22T06:51:55;3.72;;;3.72;;
9270;SDS011;4673;53.458;9.940;2023-06-22T06:54:21;3.60;;;3.60;;
9270;SDS011;4673;53.458;9.940;2023-06-22T06:56:46;3.22;;;3.22;;
9270;SDS011;4673;53.458;9.940;2023-06-22T06:59:13;3.65;;;3.65;;
9270;SDS011;4673;53.458;9.940;2023-06-22T07:01:40;3.40;;;3.40;;
9270;SDS011;4673;53.458;9.940;2023-06-22T07:04:06;3.75;;;3.75;;
9270;SDS011;4673;53.458;9.940;2023-06-22T07:06:32;3.75;;;3.75;;
9270;SDS011;4673;53.458;9.940;2023-06-22T07:08:58;3.15;;;3.15;;
9270;SDS011;4673;53.458;9.940;2023-06-22T07:28:25;3.58;;;3.58;;
9270;SDS011;4673;53.458;9.940;2023-06-22T07:30:51;3.47;;;3.47;;
9270;SDS011;4673;53.458;9.940;2023-06-22T07:33:17;3.42;;;3.42;;
9270;SDS011;4673;53.458;9.940;2023-06-22T07:35:42;2.92;;;2.92;;
9270;SDS011;4673;53.458;9.940;2023-06-22T07:38:09;2.97;;;2.97;;
9270;SDS011;4673;53.458;9.940;2023-06-22T07:40:36;3.40;;;3.40;;
9270;SDS011;4673;53.458;9.940;2023-06-22T07:43:02;3.22;;;3.22;;
9270;SDS011;4673;53.458;9.940;2023-06-22T07:45:28;2.58;;;2.58;;
9270;SDS011;4673;53.458;9.940;2023-06-22T07:47:54;3.03;;;3.03;;
9270;SDS011;4673;53.458;9.940;2023-06-22T07:50:20;3.22;;;3.22;;
9270;SDS011;4673;53.458;9.940;2023-06-22T07:52:46;3.50;;;3.50;;
9270;SDS011;4673;53.458;9.940;2023-06-22T07:55:13;3.42;;;3.42;;
9270;SDS011;4673;53.458;9.940;2023-06-22T07:57:38;2.70;;;2.70;;
9270;SDS011;4673;53.458;9.940;2023-06-22T08:00:06;3.22;;;3.22;;
9270;SDS011;4673;53.458;9.940;2023-06-22T08:02:39;2.95;;;2.95;;
9270;SDS011;4673;53.458;9.940;2023-06-22T08:05:06;3.15;;;3.15;;
9270;SDS011;4673;53.458;9.940;2023-06-22T08:07:33;3.05;;;3.05;;
9270;SDS011;4673;53.458;9.940;2023-06-22T08:10:02;2.42;;;2.42;;
9270;SDS011;4673;53.458;9.940;2023-06-22T08:12:29;3.00;;;3.00;;
9270;SDS011;4673;53.458;9.940;2023-06-22T08:14:55;3.05;;;3.05;;
9270;SDS011;4673;53.458;9.940;2023-06-22T08:17:22;3.08;;;3.08;;
9270;SDS011;4673;53.458;9.940;2023-06-22T08:19:48;2.90;;;2.90;;
9270;SDS011;4673;53.458;9.940;2023-06-22T08:22:13;2.30;;;2.30;;
9270;SDS011;4673;53.458;9.940;2023-06-22T08:24:40;2.47;;;2.47;;
9270;SDS011;4673;53.458;9.940;2023-06-22T08:27:09;2.55;;;2.55;;
9270;SDS011;4673;53.458;9.940;2023-06-22T08:29:38;3.00;;;3.00;;
9270;SDS011;4673;53.458;9.940;2023-06-22T08:32:04;3.20;;;3.20;;
9270;SDS011;4673;53.458;9.940;2023-06-22T08:34:30;3.08;;;3.08;;
9270;SDS011;4673;53.458;9.940;2023-06-22T08:36:56;2.95;;;2.95;;
9270;SDS011;4673;53.458;9.940;2023-06-22T08:39:22;3.13;;;3.13;;
9270;SDS011;4673;53.458;9.940;2023-06-22T08:41:48;2.60;;;2.60;;
9270;SDS011;4673;53.458;9.940;2023-06-22T08:44:13;2.28;;;2.28;;
9270;SDS011;4673;53.458;9.940;2023-06-22T08:46:42;3.15;;;3.15;;
9270;SDS011;4673;53.458;9.940;2023-06-22T08:49:07;3.13;;;3.13;;
9270;SDS011;4673;53.458;9.940;2023-06-22T08:51:34;2.70;;;2.70;;
9270;SDS011;4673;53.458;9.940;2023-06-22T08:54:00;3.13;;;3.13;;
9270;SDS011;4673;53.458;9.940;2023-06-22T08:56:26;2.53;;;2.53;;
9270;SDS011;4673;53.458;9.940;2023-06-22T08:58:52;2.47;;;2.47;;
9270;SDS011;4673;53.458;9.940;2023-06-22T09:01:18;2.20;;;2.20;;
9270;SDS011;4673;53.458;9.940;2023-06-22T09:03:44;2.60;;;2.60;;
9270;SDS011;4673;53.458;9.940;2023-06-22T09:06:18;2.55;;;2.55;;
9270;SDS011;4673;53.458;9.940;2023-06-22T09:08:45;2.38;;;2.38;;
9270;SDS011;4673;53.458;9.940;2023-06-22T09:11:12;3.08;;;3.08;;
9270;SDS011;4673;53.458;9.940;2023-06-22T09:13:37;2.88;;;2.88;;
9270;SDS011;4673;53.458;9.940;2023-06-22T09:16:03;4.15;;;4.15;;
9270;SDS011;4673;53.458;9.940;2023-06-22T09:18:29;3.13;;;3.13;;
9270;SDS011;4673;53.458;9.940;2023-06-22T09:20:55;2.67;;;2.67;;
9270;SDS011;4673;53.458;9.940;2023-06-22T09:23:20;3.15;;;3.15;;
9270;SDS011;4673;53.458;9.940;2023-06-22T09:25:46;3.08;;;3.08;;
9270;SDS011;4673;53.458;9.940;2023-06-22T09:28:13;3.22;;;3.22;;
9270;SDS011;4673;53.458;9.940;2023-06-22T09:30:39;2.80;;;2.80;;
9270;SDS011;4673;53.458;9.940;2023-06-22T09:33:04;3.17;;;3.17;;
9270;SDS011;4673;53.458;9.940;2023-06-22T09:35:30;3.55;;;3.55;;
9270;SDS011;4673;53.458;9.940;2023-06-22T09:37:55;2.88;;;2.88;;
9270;SDS011;4673;53.458;9.940;2023-06-22T09:40:21;2.55;;;2.55;;
9270;SDS011;4673;53.458;9.940;2023-06-22T09:42:47;2.75;;;2.75;;
9270;SDS011;4673;53.458;9.940;2023-06-22T09:45:12;2.75;;;2.75;;
9270;SDS011;4673;53.458;9.940;2023-06-22T09:47:38;2.28;;;2.28;;
9270;SDS011;4673;53.458;9.940;2023-06-22T09:50:05;3.28;;;3.28;;
9270;SDS011;4673;53.458;9.940;2023-06-22T09:52:31;3.30;;;3.30;;
9270;SDS011;4673;53.458;9.940;2023-06-22T09:54:56;3.28;;;3.28;;
9270;SDS011;4673;53.458;9.940;2023-06-22T09:57:22;3.03;;;3.03;;
9270;SDS011;4673;53.458;9.940;2023-06-22T09:59:48;2.60;;;2.60;;
9270;SDS011;4673;53.458;9.940;2023-06-22T10:02:14;2.72;;;2.72;;
9270;SDS011;4673;53.458;9.940;2023-06-22T10:04:39;2.65;;;2.65;;
9270;SDS011;4673;53.458;9.940;2023-06-22T10:07:05;3.53;;;3.53;;
9270;SDS011;4673;53.458;9.940;2023-06-22T10:09:31;3.40;;;3.40;;
9270;SDS011;4673;53.458;9.940;2023-06-22T10:11:57;3.50;;;3.50;;
9270;SDS011;4673;53.458;9.940;2023-06-22T10:14:22;3.08;;;3.08;;
9270;SDS011;4673;53.458;9.940;2023-06-22T10:16:50;2.97;;;2.97;;
9270;SDS011;4673;53.458;9.940;2023-06-22T10:19:17;3.03;;;3.03;;
9270;SDS011;4673;53.458;9.940;2023-06-22T10:21:42;3.20;;;3.20;;
9270;SDS011;4673;53.458;9.940;2023-06-22T10:24:08;2.58;;;2.58;;
9270;SDS011;4673;53.458;9.940;2023-06-22T10:26:34;2.17;;;2.17;;
9270;SDS011;4673;53.458;9.940;2023-06-22T10:29:01;3.35;;;3.35;;
9270;SDS011;4673;53.458;9.940;2023-06-22T10:31:27;2.88;;;2.88;;
9270;SDS011;4673;53.458;9.940;2023-06-22T10:33:53;3.40;;;3.40;;
9270;SDS011;4673;53.458;9.940;2023-06-22T10:36:19;3.05;;;3.05;;
9270;SDS011;4673;53.458;9.940;2023-06-22T10:38:45;2.90;;;2.90;;
9270;SDS011;4673;53.458;9.940;2023-06-22T10:41:12;2.83;;;2.83;;
9270;SDS011;4673;53.458;9.940;2023-06-22T10:43:38;2.88;;;2.88;;
9270;SDS011;4673;53.458;9.940;2023-06-22T10:46:03;2.53;;;2.53;;
9270;SDS011;4673;53.458;9.940;2023-06-22T10:48:29;2.70;;;2.70;;
9270;SDS011;4673;53.458;9.940;2023-06-22T10:50:55;3.00;;;3.00;;
9270;SDS011;4673;53.458;9.940;2023-06-22T10:53:20;3.47;;;3.47;;
9270;SDS011;4673;53.458;9.940;2023-06-22T10:55:46;3.80;;;3.80;;
9270;SDS011;4673;53.458;9.940;2023-06-22T10:58:12;3.28;;;3.28;;
9270;SDS011;4673;53.458;9.940;2023-06-22T11:00:38;3.22;;;3.22;;
9270;SDS011;4673;53.458;9.940;2023-06-22T11:03:04;3.70;;;3.70;;
9270;SDS011;4673;53.458;9.940;2023-06-22T11:05:29;3.20;;;3.20;;
9270;SDS011;4673;53.458;9.940;2023-06-22T11:07:57;3.55;;;3.55;;
9270;SDS011;4673;53.458;9.940;2023-06-22T11:10:22;3.22;;;3.22;;
9270;SDS011;4673;53.458;9.940;2023-06-22T11:12:48;3.45;;;3.45;;
9270;SDS011;4673;53.458;9.940;2023-06-22T11:15:14;3.05;;;3.05;;
9270;SDS011;4673;53.458;9.940;2023-06-22T11:17:40;3.45;;;3.45;;
9270;SDS011;4673;53.458;9.940;2023-06-22T11:20:05;4.35;;;4.35;;
9270;SDS011;4673;53.458;9.940;2023-06-22T11:22:39;3.25;;;3.25;;
9270;SDS011;4673;53.458;9.940;2023-06-22T11:25:05;3.08;;;3.08;;
9270;SDS011;4673;53.458;9.940;2023-06-22T11:27:32;3.47;;;3.47;;
9270;SDS011;4673;53.458;9.940;2023-06-22T11:29:57;2.80;;;2.80;;
9270;SDS011;4673;53.458;9.940;2023-06-22T11:32:23;3.60;;;3.60;;
9270;SDS011;4673;53.458;9.940;2023-06-22T11:34:49;3.15;;;3.15;;
9270;SDS011;4673;53.458;9.940;2023-06-22T11:37:15;2.85;;;2.85;;
9270;SDS011;4673;53.458;9.940;2023-06-22T11:39:41;2.53;;;2.53;;
9270;SDS011;4673;53.458;9.940;2023-06-22T11:42:07;3.60;;;3.60;;
9270;SDS011;4673;53.458;9.940;2023-06-22T11:44:34;3.17;;;3.17;;
9270;SDS011;4673;53.458;9.940;2023-06-22T11:46:59;4.03;;;4.03;;
9270;SDS011;4673;53.458;9.940;2023-06-22T11:49:26;3.83;;;3.83;;
9270;SDS011;4673;53.458;9.940;2023-06-22T11:51:52;3.70;;;3.70;;
9270;SDS011;4673;53.458;9.940;2023-06-22T11:54:18;2.95;;;2.95;;
9270;SDS011;4673;53.458;9.940;2023-06-22T11:56:43;3.67;;;3.67;;
9270;SDS011;4673;53.458;9.940;2023-06-22T11:59:09;3.25;;;3.25;;
9270;SDS011;4673;53.458;9.940;2023-06-22T12:01:35;3.50;;;3.50;;
9270;SDS011;4673;53.458;9.940;2023-06-22T12:04:00;3.47;;;3.47;;
9270;SDS011;4673;53.458;9.940;2023-06-22T12:06:26;3.28;;;3.28;;
9270;SDS011;4673;53.458;9.940;2023-06-22T12:08:52;3.42;;;3.42;;
9270;SDS011;4673;53.458;9.940;2023-06-22T12:11:18;3.95;;;3.95;;
9270;SDS011;4673;53.458;9.940;2023-06-22T12:13:43;3.95;;;3.95;;
9270;SDS011;4673;53.458;9.940;2023-06-22T12:16:09;4.07;;;4.07;;
9270;SDS011;4673;53.458;9.940;2023-06-22T12:18:35;3.80;;;3.80;;
9270;SDS011;4673;53.458;9.940;2023-06-22T12:21:00;3.60;;;3.60;;
9270;SDS011;4673;53.458;9.940;2023-06-22T12:23:26;3.50;;;3.50;;
9270;SDS011;4673;53.458;9.940;2023-06-22T12:25:51;3.75;;;3.75;;
9270;SDS011;4673;53.458;9.940;2023-06-22T12:28:17;3.97;;;3.97;;
9270;SDS011;4673;53.458;9.940;2023-06-22T12:30:43;3.45;;;3.45;;
9270;SDS011;4673;53.458;9.940;2023-06-22T12:33:09;3.50;;;3.50;;
9270;SDS011;4673;53.458;9.940;2023-06-22T12:35:34;3.92;;;3.92;;
9270;SDS011;4673;53.458;9.940;2023-06-22T12:38:00;4.55;;;4.55;;
9270;SDS011;4673;53.458;9.940;2023-06-22T12:40:26;4.28;;;4.28;;
9270;SDS011;4673;53.458;9.940;2023-06-22T12:42:51;4.20;;;4.20;;
9270;SDS011;4673;53.458;9.940;2023-06-22T12:45:17;4.25;;;4.25;;
9270;SDS011;4673;53.458;9.940;2023-06-22T12:47:43;4.70;;;4.70;;
9270;SDS011;4673;53.458;9.940;2023-06-22T12:50:09;4.28;;;4.28;;
9270;SDS011;4673;53.458;9.940;2023-06-22T12:52:36;4.72;;;4.72;;
9270;SDS011;4673;53.458;9.940;2023-06-22T12:55:05;4.80;;;4.80;;
9270;SDS011;4673;53.458;9.940;2023-06-22T12:57:31;4.35;;;4.35;;
9270;SDS011;4673;53.458;9.940;2023-06-22T12:59:56;4.38;;;4.38;;
9270;SDS011;4673;53.458;9.940;2023-06-22T13:02:23;4.25;;;4.25;;
9270;SDS011;4673;53.458;9.940;2023-06-22T13:04:49;4.32;;;4.32;;
9270;SDS011;4673;53.458;9.940;2023-06-22T13:07:14;4.50;;;4.50;;
9270;SDS011;4673;53.458;9.940;2023-06-22T13:09:40;4.75;;;4.75;;
9270;SDS011;4673;53.458;9.940;2023-06-22T13:12:06;4.28;;;4.28;;
9270;SDS011;4673;53.458;9.940;2023-06-22T13:14:32;4.45;;;4.45;;
9270;SDS011;4673;53.458;9.940;2023-06-22T13:16:57;4.13;;;4.13;;
9270;SDS011;4673;53.458;9.940;2023-06-22T13:19:23;4.38;;;4.38;;
9270;SDS011;4673;53.458;9.940;2023-06-22T13:21:49;4.00;;;4.00;;
9270;SDS011;4673;53.458;9.940;2023-06-22T13:24:15;4.05;;;4.05;;
9270;SDS011;4673;53.458;9.940;2023-06-22T13:26:41;4.65;;;4.65;;
9270;SDS011;4673;53.458;9.940;2023-06-22T13:29:07;4.15;;;4.15;;
9270;SDS011;4673;53.458;9.940;2023-06-22T13:31:32;4.40;;;4.40;;
9270;SDS011;4673;53.458;9.940;2023-06-22T13:33:58;4.32;;;4.32;;
9270;SDS011;4673;53.458;9.940;2023-06-22T13:36:24;4.28;;;4.28;;
9270;SDS011;4673;53.458;9.940;2023-06-22T13:38:49;3.55;;;3.55;;
9270;SDS011;4673;53.458;9.940;2023-06-22T13:41:15;4.63;;;4.63;;
9270;SDS011;4673;53.458;9.940;2023-06-22T13:43:41;3.83;;;3.83;;
9270;SDS011;4673;53.458;9.940;2023-06-22T13:46:06;5.10;;;5.10;;
9270;SDS011;4673;53.458;9.940;2023-06-22T13:48:32;4.43;;;4.43;;
9270;SDS011;4673;53.458;9.940;2023-06-22T13:50:58;4.57;;;4.57;;
9270;SDS011;4673;53.458;9.940;2023-06-22T13:53:24;3.72;;;3.72;;
9270;SDS011;4673;53.458;9.940;2023-06-22T13:55:51;4.10;;;4.10;;
9270;SDS011;4673;53.458;9.940;2023-06-22T13:58:16;4.38;;;4.38;;
9270;SDS011;4673;53.458;9.940;2023-06-22T14:00:44;4.40;;;4.40;;
9270;SDS011;4673;53.458;9.940;2023-06-22T14:03:10;4.82;;;4.82;;
9270;SDS011;4673;53.458;9.940;2023-06-22T14:05:36;4.10;;;4.10;;
9270;SDS011;4673;53.458;9.940;2023-06-22T14:08:01;4.05;;;4.05;;
9270;SDS011;4673;53.458;9.940;2023-06-22T14:10:27;4.10;;;4.10;;
9270;SDS011;4673;53.458;9.940;2023-06-22T14:12:52;3.83;;;3.83;;
9270;SDS011;4673;53.458;9.940;2023-06-22T14:15:18;4.13;;;4.13;;
9270;SDS011;4673;53.458;9.940;2023-06-22T14:17:44;4.50;;;4.50;;
9270;SDS011;4673;53.458;9.940;2023-06-22T14:20:10;4.72;;;4.72;;
9270;SDS011;4673;53.458;9.940;2023-06-22T14:22:36;4.80;;;4.80;;
9270;SDS011;4673;53.458;9.940;2023-06-22T14:25:01;4.30;;;4.30;;
9270;SDS011;4673;53.458;9.940;2023-06-22T14:27:27;5.07;;;5.07;;
9270;SDS011;4673;53.458;9.940;2023-06-22T14:29:53;4.78;;;4.78;;
9270;SDS011;4673;53.458;9.940;2023-06-22T14:32:19;4.18;;;4.18;;
9270;SDS011;4673;53.458;9.940;2023-06-22T14:34:44;4.35;;;4.35;;
9270;SDS011;4673;53.458;9.940;2023-06-22T14:37:10;5.10;;;5.10;;
9270;SDS011;4673;53.458;9.940;2023-06-22T14:39:37;4.97;;;4.97;;
9270;SDS011;4673;53.458;9.940;2023-06-22T14:42:04;4.43;;;4.43;;
9270;SDS011;4673;53.458;9.940;2023-06-22T14:44:30;5.28;;;5.28;;
9270;SDS011;4673;53.458;9.940;2023-06-22T14:46:56;5.22;;;5.22;;
9270;SDS011;4673;53.458;9.940;2023-06-22T14:49:22;4.80;;;4.80;;
9270;SDS011;4673;53.458;9.940;2023-06-22T14:51:48;4.70;;;4.70;;
9270;SDS011;4673;53.458;9.940;2023-06-22T14:54:14;4.22;;;4.22;;
9270;SDS011;4673;53.458;9.940;2023-06-22T14:56:39;4.85;;;4.85;;
9270;SDS011;4673;53.458;9.940;2023-06-22T14:59:05;4.55;;;4.55;;
9270;SDS011;4673;53.458;9.940;2023-06-22T15:01:31;4.07;;;4.07;;
9270;SDS011;4673;53.458;9.940;2023-06-22T15:03:57;4.53;;;4.53;;
9270;SDS011;4673;53.458;9.940;2023-06-22T15:06:22;3.88;;;3.88;;
9270;SDS011;4673;53.458;9.940;2023-06-22T15:08:48;4.22;;;4.22;;
9270;SDS011;4673;53.458;9.940;2023-06-22T15:11:14;4.25;;;4.25;;
9270;SDS011;4673;53.458;9.940;2023-06-22T15:13:39;4.50;;;4.50;;
9270;SDS011;4673;53.458;9.940;2023-06-22T15:16:05;4.50;;;4.50;;
9270;SDS011;4673;53.458;9.940;2023-06-22T15:18:31;4.82;;;4.82;;
9270;SDS011;4673;53.458;9.940;2023-06-22T15:21:00;4.45;;;4.45;;
9270;SDS011;4673;53.458;9.940;2023-06-22T15:23:29;3.95;;;3.95;;
9270;SDS011;4673;53.458;9.940;2023-06-22T15:25:56;4.57;;;4.57;;
9270;SDS011;4673;53.458;9.940;2023-06-22T15:28:22;4.18;;;4.18;;
9270;SDS011;4673;53.458;9.940;2023-06-22T15:30:48;4.55;;;4.55;;
9270;SDS011;4673;53.458;9.940;2023-06-22T15:33:14;4.63;;;4.63;;
9270;SDS011;4673;53.458;9.940;2023-06-22T15:35:40;4.40;;;4.40;;
9270;SDS011;4673;53.458;9.940;2023-06-22T15:38:06;4.03;;;4.03;;